Hauptseite
METAR-TAF:

METAR-TAF

Flughäfen :

Niamey, Niger

Flughafen Niamey

Breite: 13-29N, Länge: 002-10E, Höhe: 223 m

Beobachtung

Neuester Wetterbericht von vor 49 Minuten, um 23:00 UTC
Wind 4 kt aus Nordost
Temperatur 22°C
Luftfeuchtigkeit 16%
Luftdruck 1014 hPa
Sichtweite: 2500 m
verbreitet Staub

METAR: DRRN 172300Z 05004KT 2500 DU NSC 22/M05 Q1014 NOSIG

Zeit: 00:49 (23:49 UTC)

Prognose

Neuester Wetterbericht von vor 49 Minuten, um 23:00 UTC
Gültige Prognose vom 18 um 00 UTC bis 19 um 06 UTC
Wind 8 kt aus Ost/Nordost
Sichtweite: 2000 m
verbreitet Staub
Übergehend zu
vom 18 um 02 UTC bis 18 um 04 UTC
Sichtweite: 3500 m
Zeitweise
vom 18 um 08 UTC bis 18 um 12 UTC
Wind 18 kt aus Ost
Sichtweite: 2500 m
Staubtreiben

TAF: DRRN 172300Z 1800/1906 06008KT 2000 DU NSC BECMG 1802/1804 3500 TEMPO 1808/1812 10018KT 2500 BLDU

Wetterbeobachtungen und Prognosen von mehr als 4000 Flughäfen (METAR und TAF Bericht).

Die verfügbaren Stationen werden durch gelbe und rote Markierungen auf der Karte dargestellt.

Führen Sie die Maus auf sie, um den Namen der Station zu sehen.

Darauf klicken, um die Beobachtung von Wetterbeobachtungen und Prognosen zu sehen.

Um die Karte zu ändern : klicken Sie auf den grünen Tasten mit einem schwarzen Kreuz Zum Vergrößern, auf den grünen Button mit einem Gedankenstrich zu verkleinern, oder auf die grünen Pfeile für benachbarte Karten.


METAR-TAF: